メルボルン の空港の天気 - METARとTAF

メルボルン空港 ( YMML / MEL ) - オーストラリア ビクトリア州、Melbourne Airport
飛行場実況気象(Metar)
観測時間08/19 00:00 AEST (08/18 14:00 UTC)
風向・風速北北東 3m/s
視程10km以上
天気現象弱い雨
少しの雲 雲底高度 460m
全天の8割程度の雲 雲底高度 1460m
全天の8割程度の雲 雲底高度 2320m
気温9℃
湿度93%
気圧1010hPa
METARYMML 181400Z 02006KT 9999 -RA FEW015 BKN048 BKN076 09/08 Q1010
過去の天気等 Google飛行場航空写真 Wunderground天気予報

過去48時間のMETAR

飛行場予報(TAF)
発表時間: 8/18 21:13 AEST (8/18 11:13 UTC)
予報対象時間: 18日22時 AEST ~ 20日4時 AEST
風向・風速北北西 3m/s
視程10km以上
天気現象弱いしゅう雨
全天の4割程度の雲 雲底高度 910m
19日2時 AEST から
風向・風速西 4m/s
視程10km以上
なし
19日17時 AEST から
風向・風速北北西 7m/s
視程10km以上
全天の4割程度の雲 雲底高度 1220m
TAF YMML 181113Z 1812/1918 34006KT 9999 -SHRA SCT030
FM181600 28008KT CAVOK
FM190700 34013KT 9999 SCT040